Time;durP1;ratioP1;P1;durP2;ratioP2;P2;SDS_P1;SDS_P2;PMS_P1;PMS_P2;Temp;Humidity;BMP_temperature;BMP_pressure;BME280_temperature;BME280_humidity;BME280_pressure;Samples;Min_cycle;Max_cycle;Signal;HPM_P1;HPM_P2
2022/08/06 00:02:08;;;;;;;;;;;;;;;29.36;37.99;100512.94;105123;1302;62221;-84
2022/08/06 00:04:33;;;;;;;;;;;;;;;29.36;37.91;100516.03;104977;1302;62040;-84
2022/08/06 00:06:59;;;;;;;;;;;;;;;29.36;38.03;100515.48;105098;1302;73963;-85
2022/08/06 00:09:27;;;;;;;;;;;;;;;29.36;37.97;100517.27;104876;1302;62073;-85
2022/08/06 00:11:52;;;;;;;;;;;;;;;29.36;37.99;100517.83;105143;1302;61963;-84
2022/08/06 00:14:18;;;;;;;;;;;;;;;29.36;37.90;100514.05;104907;1302;62197;-85
2022/08/06 00:16:43;;;;;;;;;;;;;;;29.36;37.96;100510.45;105115;1302;62220;-85
2022/08/06 00:19:09;;;;;;;;;;;;;;;29.36;37.95;100509.94;105107;1302;62100;-85
2022/08/06 00:21:35;;;;;;;;;;;;;;;29.35;38.17;100511.23;104882;1302;62161;-85
2022/08/06 00:24:01;;;;;;;;;;;;;;;29.36;37.88;100511.50;105150;1302;62162;-86
2022/08/06 00:26:26;;;;;;;;;;;;;;;29.36;37.97;100510.98;104892;1302;62103;-83
2022/08/06 00:28:52;;;;;;;;;;;;;;;29.36;38.08;100513.73;105120;1302;62109;-85
2022/08/06 00:31:17;;;;;;;;;;;;;;;29.36;38.00;100509.77;104835;1302;62069;-84
2022/08/06 00:33:43;;;;;;;;;;;;;;;29.36;38.26;100508.48;105117;1302;62084;-83
2022/08/06 00:36:08;;;;;;;;;;;;;;;29.35;37.95;100507.27;105149;1302;62059;-83
2022/08/06 00:38:34;;;;;;;;;;;;;;;29.35;38.03;100505.12;104847;1303;62084;-84
2022/08/06 00:40:59;;;;;;;;;;;;;;;29.35;38.11;100510.20;104840;1303;62253;-84
2022/08/06 00:43:25;;;;;;;;;;;;;;;29.35;38.05;100510.52;104799;1303;62108;-85
2022/08/06 00:45:51;;;;;;;;;;;;;;;29.35;38.03;100510.37;104830;1303;62129;-85
2022/08/06 00:48:16;;;;;;;;;;;;;;;29.35;37.85;100511.27;104863;1303;61992;-84
2022/08/06 00:50:42;;;;;;;;;;;;;;;29.35;38.07;100515.98;104878;1303;62149;-84
2022/08/06 00:53:07;;;;;;;;;;;;;;;29.35;38.07;100514.55;104822;1303;62132;-87
2022/08/06 00:55:34;;;;;;;;;;;;;;;29.35;37.96;100516.73;104851;1305;62064;-84
2022/08/06 00:57:59;;;;;;;;;;;;;;;29.35;38.06;100516.55;104843;1302;62107;-84
2022/08/06 01:00:25;;;;;;;;;;;;;;;29.34;38.20;100518.41;104843;1303;62219;-84
2022/08/06 01:02:50;;;;;;;;;;;;;;;29.35;38.01;100519.82;104883;1303;62128;-84
2022/08/06 01:05:15;;;;;;;;;;;;;;;29.35;38.17;100523.45;104886;1303;62178;-85
2022/08/06 01:07:41;;;;;;;;;;;;;;;29.35;38.23;100520.91;104816;1304;62202;-83
2022/08/06 01:10:07;;;;;;;;;;;;;;;29.34;38.12;100519.67;104855;1303;62174;-83
2022/08/06 01:12:32;;;;;;;;;;;;;;;29.34;38.18;100520.61;104893;1302;63261;-86
2022/08/06 01:14:58;;;;;;;;;;;;;;;29.34;38.20;100519.35;104823;1303;62146;-85
2022/08/06 01:17:27;;;;;;;;;;;;;;;29.34;38.17;100517.55;104891;1304;60164;-86
2022/08/06 01:19:59;;;;;;;;;;;;;;;29.34;38.14;100521.93;104844;1303;76403;-83
2022/08/06 01:22:36;;;;;;;;;;;;;;;29.34;38.23;100516.88;104866;1303;62085;-83
2022/08/06 01:25:21;;;;;;;;;;;;;;;29.34;38.26;100521.56;104859;1303;62053;-84
2022/08/06 01:27:56;;;;;;;;;;;;;;;29.34;38.11;100518.33;104859;1303;72646;-84
2022/08/06 01:30:23;;;;;;;;;;;;;;;29.34;38.15;100519.02;104879;1303;75545;-84
2022/08/06 01:32:50;;;;;;;;;;;;;;;29.34;38.27;100519.35;104843;1303;61998;-84
2022/08/06 01:35:18;;;;;;;;;;;;;;;29.34;38.29;100521.60;104840;1303;62086;-83
2022/08/06 01:37:56;;;;;;;;;;;;;;;29.34;38.16;100520.98;104803;1303;72871;-82
2022/08/06 01:40:23;;;;;;;;;;;;;;;29.34;38.14;100522.14;104848;1303;76913;-83
2022/08/06 01:42:48;;;;;;;;;;;;;;;29.34;38.26;100522.48;104841;1303;62006;-83
2022/08/06 01:45:14;;;;;;;;;;;;;;;29.34;38.26;100520.48;104816;1304;62245;-84
2022/08/06 01:47:40;;;;;;;;;;;;;;;29.34;38.22;100521.02;104839;1303;62066;-84
2022/08/06 01:50:05;;;;;;;;;;;;;;;29.33;38.25;100514.73;104862;1303;62188;-84
2022/08/06 01:52:35;;;;;;;;;;;;;;;29.33;38.31;100516.19;104852;1303;62098;-84
2022/08/06 01:55:00;;;;;;;;;;;;;;;29.33;38.16;100511.84;104833;1303;62050;-82
2022/08/06 01:57:26;;;;;;;;;;;;;;;29.33;38.31;100518.02;104820;1303;62287;-83
2022/08/06 01:59:52;;;;;;;;;;;;;;;29.33;38.24;100518.02;104817;1303;62096;-83
2022/08/06 02:02:18;;;;;;;;;;;;;;;29.33;38.29;100519.86;104799;1304;62178;-84
2022/08/06 02:04:44;;;;;;;;;;;;;;;29.33;38.34;100522.38;104875;1303;62108;-84
2022/08/06 02:07:10;;;;;;;;;;;;;;;29.33;38.36;100521.83;104866;1303;62142;-85
2022/08/06 02:09:36;;;;;;;;;;;;;;;29.33;38.33;100519.33;104880;1303;62261;-83
2022/08/06 02:12:01;;;;;;;;;;;;;;;29.33;38.25;100518.02;104862;1303;76697;-83
2022/08/06 02:14:26;;;;;;;;;;;;;;;29.33;38.14;100519.35;104879;1303;62076;-83
2022/08/06 02:16:52;;;;;;;;;;;;;;;29.32;38.12;100520.48;104824;1305;62237;-84
2022/08/06 02:19:18;;;;;;;;;;;;;;;29.32;38.23;100521.02;104858;1303;62140;-84
2022/08/06 02:21:43;;;;;;;;;;;;;;;29.33;38.26;100524.23;104888;1305;59773;-83
2022/08/06 02:24:09;;;;;;;;;;;;;;;29.32;38.33;100519.55;104874;1305;75672;-83
2022/08/06 02:26:35;;;;;;;;;;;;;;;29.32;38.41;100518.64;104881;1302;62044;-83
2022/08/06 02:29:01;;;;;;;;;;;;;;;29.33;38.28;100520.98;104868;1303;62066;-84
2022/08/06 02:31:27;;;;;;;;;;;;;;;29.32;38.31;100525.36;104850;1303;62575;-85
2022/08/06 02:33:52;;;;;;;;;;;;;;;29.32;38.24;100523.56;104835;1303;62088;-85
2022/08/06 02:36:19;;;;;;;;;;;;;;;29.33;38.19;100525.00;104883;1303;62095;-85
2022/08/06 02:38:46;;;;;;;;;;;;;;;29.31;38.27;100520.58;104823;1303;61838;-85
2022/08/06 02:41:15;;;;;;;;;;;;;;;29.32;38.50;100522.48;104860;1303;62104;-84
2022/08/06 02:43:41;;;;;;;;;;;;;;;29.31;38.33;100520.59;104883;1303;62251;-85
2022/08/06 02:46:06;;;;;;;;;;;;;;;29.32;38.40;100518.20;104901;1303;62121;-85
2022/08/06 02:48:33;;;;;;;;;;;;;;;29.31;38.49;100522.01;104885;1303;62055;-85
2022/08/06 02:50:59;;;;;;;;;;;;;;;29.32;38.29;100525.09;104837;1303;61996;-86
2022/08/06 02:53:26;;;;;;;;;;;;;;;29.32;38.21;100525.03;104856;1303;62200;-84
2022/08/06 02:55:56;;;;;;;;;;;;;;;29.32;38.56;100524.14;104876;1303;60171;-85
2022/08/06 02:58:21;;;;;;;;;;;;;;;29.31;38.47;100522.92;104849;1303;61958;-85
2022/08/06 03:00:47;;;;;;;;;;;;;;;29.32;38.70;100524.01;104848;1303;62124;-85
2022/08/06 03:03:13;;;;;;;;;;;;;;;29.32;38.41;100528.32;104848;1303;62148;-84
2022/08/06 03:05:38;;;;;;;;;;;;;;;29.31;38.56;100529.48;104851;1303;62165;-85
2022/08/06 03:08:06;;;;;;;;;;;;;;;29.31;38.45;100529.45;104875;1303;62080;-85
2022/08/06 03:10:31;;;;;;;;;;;;;;;29.31;38.44;100529.81;104851;1304;62109;-85
2022/08/06 03:12:57;;;;;;;;;;;;;;;29.31;38.65;100530.77;104788;1303;62091;-85
2022/08/06 03:15:23;;;;;;;;;;;;;;;29.31;38.40;100528.80;104868;1303;62109;-85
2022/08/06 03:17:48;;;;;;;;;;;;;;;29.31;38.63;100532.65;104866;1303;62288;-85
2022/08/06 03:20:14;;;;;;;;;;;;;;;29.31;38.54;100532.40;104890;1303;62119;-85
2022/08/06 03:22:40;;;;;;;;;;;;;;;29.31;38.59;100534.61;104833;1302;61931;-85
2022/08/06 03:25:06;;;;;;;;;;;;;;;29.31;38.60;100536.95;104882;1303;63255;-85
2022/08/06 03:27:31;;;;;;;;;;;;;;;29.30;38.62;100537.36;104818;1304;62101;-85
2022/08/06 03:29:57;;;;;;;;;;;;;;;29.31;38.41;100538.24;104883;1303;62102;-84
2022/08/06 03:32:22;;;;;;;;;;;;;;;29.30;38.63;100536.45;104872;1303;62141;-84
2022/08/06 03:34:48;;;;;;;;;;;;;;;29.31;38.71;100542.93;104899;1303;62296;-84
2022/08/06 03:37:13;;;;;;;;;;;;;;;29.31;38.59;100544.93;104870;1303;62816;-85
2022/08/06 03:39:39;;;;;;;;;;;;;;;29.31;38.58;100546.58;104877;1302;62938;-85
2022/08/06 03:42:04;;;;;;;;;;;;;;;29.31;38.77;100548.38;105139;1302;62097;-85
2022/08/06 03:44:30;;;;;;;;;;;;;;;29.31;38.47;100550.74;104945;1303;62188;-85
2022/08/06 03:46:57;;;;;;;;;;;;;;;29.31;38.64;100552.72;104929;1303;62195;-85
2022/08/06 03:49:23;;;;;;;;;;;;;;;29.31;38.90;100549.09;104921;1302;72601;-84
2022/08/06 03:51:49;;;;;;;;;;;;;;;29.31;38.64;100548.20;104902;1303;61942;-84
2022/08/06 03:54:15;;;;;;;;;;;;;;;29.31;38.73;100551.42;104895;1303;62153;-84
2022/08/06 03:56:40;;;;;;;;;;;;;;;29.31;38.61;100553.98;104888;1303;62098;-86
2022/08/06 03:59:06;;;;;;;;;;;;;;;29.31;38.73;100556.48;105131;1302;62213;-85
2022/08/06 04:01:32;;;;;;;;;;;;;;;29.31;38.71;100556.88;105188;1302;62074;-84
2022/08/06 04:03:58;;;;;;;;;;;;;;;29.31;38.80;100557.18;105128;1301;76716;-83
2022/08/06 04:06:23;;;;;;;;;;;;;;;29.31;38.55;100556.67;104869;1303;62086;-82
2022/08/06 04:08:49;;;;;;;;;;;;;;;29.31;38.61;100557.89;105125;1302;62046;-83
2022/08/06 04:11:14;;;;;;;;;;;;;;;29.31;38.80;100560.14;105133;1302;62082;-84
2022/08/06 04:13:40;;;;;;;;;;;;;;;29.32;38.72;100557.52;104951;1302;62176;-84
2022/08/06 04:16:05;;;;;;;;;;;;;;;29.32;38.67;100555.34;105116;1302;75703;-83
2022/08/06 04:18:35;;;;;;;;;;;;;;;29.32;38.86;100556.22;104901;1303;62121;-84
2022/08/06 04:21:01;;;;;;;;;;;;;;;29.32;38.63;100557.14;104903;1303;62141;-84
2022/08/06 04:23:27;;;;;;;;;;;;;;;29.31;38.99;100553.92;104876;1303;62106;-84
2022/08/06 04:25:54;;;;;;;;;;;;;;;29.31;38.71;100556.30;104883;1302;62202;-84
2022/08/06 04:28:20;;;;;;;;;;;;;;;29.32;38.88;100560.07;105114;1302;62102;-84
2022/08/06 04:30:46;;;;;;;;;;;;;;;29.31;38.92;100560.06;104923;1301;62127;-84
2022/08/06 04:33:11;;;;;;;;;;;;;;;29.31;38.96;100561.73;105137;1302;62067;-84
2022/08/06 04:35:37;;;;;;;;;;;;;;;29.31;38.58;100559.55;104891;1303;62103;-84
2022/08/06 04:38:03;;;;;;;;;;;;;;;29.32;38.93;100562.41;104875;1302;62017;-84
2022/08/06 04:40:28;;;;;;;;;;;;;;;29.31;38.90;100558.84;104924;1302;62136;-84
2022/08/06 04:42:54;;;;;;;;;;;;;;;29.31;38.74;100560.64;104927;1302;62024;-84
2022/08/06 04:45:19;;;;;;;;;;;;;;;29.31;38.70;100565.33;105016;1302;62105;-84
2022/08/06 04:47:45;;;;;;;;;;;;;;;29.31;38.86;100570.05;104859;1302;62110;-84
2022/08/06 04:50:10;;;;;;;;;;;;;;;29.32;38.96;100574.20;105024;1302;60245;-84
2022/08/06 04:52:36;;;;;;;;;;;;;;;29.31;39.01;100570.23;105022;1302;62062;-85
2022/08/06 04:55:01;;;;;;;;;;;;;;;29.31;38.76;100575.12;104903;1302;61981;-83
2022/08/06 04:57:27;;;;;;;;;;;;;;;29.31;38.83;100570.05;105009;1302;62206;-84
2022/08/06 04:59:52;;;;;;;;;;;;;;;29.31;38.83;100571.52;104864;1302;62080;-83
2022/08/06 05:02:18;;;;;;;;;;;;;;;29.31;38.78;100570.80;104912;1302;62137;-83
2022/08/06 05:04:45;;;;;;;;;;;;;;;29.31;38.76;100571.69;105071;1302;62092;-84
2022/08/06 05:07:19;;;;;;;;;;;;;;;29.32;38.95;100574.55;105025;1302;62000;-83
2022/08/06 05:09:44;;;;;;;;;;;;;;;29.32;39.05;100572.73;104825;1302;71827;-84
2022/08/06 05:12:31;;;;;;;;;;;;;;;29.31;38.61;100574.03;104794;1302;62112;-84
2022/08/06 05:15:01;;;;;;;;;;;;;;;29.31;39.04;100577.87;104977;1302;61966;-84
2022/08/06 05:17:29;;;;;;;;;;;;;;;29.32;38.94;100580.35;105001;1301;62053;-84
2022/08/06 05:19:59;;;;;;;;;;;;;;;29.32;38.85;100577.59;104891;1302;72855;-83
2022/08/06 05:22:24;;;;;;;;;;;;;;;29.31;38.84;100576.21;104845;1302;75381;-82
2022/08/06 05:24:50;;;;;;;;;;;;;;;29.32;39.04;100574.38;104885;1302;62107;-82
2022/08/06 05:27:15;;;;;;;;;;;;;;;29.32;38.81;100575.60;104914;1302;62108;-86
2022/08/06 05:29:41;;;;;;;;;;;;;;;29.32;39.03;100579.19;104863;1302;59930;-85
2022/08/06 05:32:06;;;;;;;;;;;;;;;29.33;39.07;100580.97;104912;1302;62151;-84
2022/08/06 05:34:32;;;;;;;;;;;;;;;29.32;38.86;100583.55;104862;1302;62086;-84
2022/08/06 05:36:57;;;;;;;;;;;;;;;29.33;38.96;100583.11;104911;1302;62097;-84
2022/08/06 05:39:23;;;;;;;;;;;;;;;29.34;39.03;100581.20;104894;1302;62084;-84
2022/08/06 05:41:49;;;;;;;;;;;;;;;29.35;39.00;100579.64;104893;1303;62068;-85
2022/08/06 05:44:14;;;;;;;;;;;;;;;29.36;39.00;100578.59;104935;1302;62090;-84
2022/08/06 05:46:41;;;;;;;;;;;;;;;29.37;39.20;100579.98;105118;1302;76600;-84
2022/08/06 05:49:07;;;;;;;;;;;;;;;29.37;39.18;100576.65;104932;1303;62018;-84
2022/08/06 05:51:33;;;;;;;;;;;;;;;29.38;38.89;100576.92;104935;1303;61855;-84
2022/08/06 05:54:00;;;;;;;;;;;;;;;29.40;39.10;100578.55;104921;1302;62241;-84
2022/08/06 05:56:27;;;;;;;;;;;;;;;29.40;39.03;100577.73;105147;1302;62181;-84
2022/08/06 05:58:56;;;;;;;;;;;;;;;29.41;39.10;100575.52;104920;1302;62178;-86
2022/08/06 06:01:23;;;;;;;;;;;;;;;29.42;39.11;100579.20;104839;1303;62069;-84
2022/08/06 06:03:48;;;;;;;;;;;;;;;29.43;39.24;100575.30;105121;1302;61928;-84
2022/08/06 06:06:14;;;;;;;;;;;;;;;29.44;39.14;100575.36;105096;1302;62235;-84
2022/08/06 06:08:39;;;;;;;;;;;;;;;29.45;39.10;100572.70;104921;1302;62092;-85
2022/08/06 06:11:05;;;;;;;;;;;;;;;29.46;39.22;100571.71;105152;1302;62127;-84
2022/08/06 06:13:30;;;;;;;;;;;;;;;29.47;39.16;100571.00;104886;1302;62792;-83
2022/08/06 06:16:11;;;;;;;;;;;;;;;29.47;39.11;100564.65;105116;1302;72575;-84
2022/08/06 06:18:42;;;;;;;;;;;;;;;29.49;39.19;100567.73;105149;1302;74511;-85
2022/08/06 06:21:13;;;;;;;;;;;;;;;29.50;39.25;100569.81;104867;1302;61957;-85
2022/08/06 06:23:40;;;;;;;;;;;;;;;29.50;39.31;100573.21;104910;1302;62634;-83
2022/08/06 06:26:15;;;;;;;;;;;;;;;29.51;39.16;100568.38;105145;1302;73121;-84
2022/08/06 06:28:44;;;;;;;;;;;;;;;29.52;39.25;100568.15;103716;1302;1566172;-83
2022/08/06 06:31:11;;;;;;;;;;;;;;;29.53;39.27;100569.67;105121;1302;62088;-85
2022/08/06 06:33:46;;;;;;;;;;;;;;;29.54;39.37;100569.54;105139;1302;61962;-85
2022/08/06 06:36:20;;;;;;;;;;;;;;;29.54;39.19;100568.27;105082;1302;73829;-85
2022/08/06 06:38:58;;;;;;;;;;;;;;;29.55;39.34;100569.05;104884;1302;76707;-85
2022/08/06 06:41:42;;;;;;;;;;;;;;;29.56;39.42;100573.66;104914;1303;62263;-85
2022/08/06 06:44:07;;;;;;;;;;;;;;;29.56;39.47;100571.23;104930;1302;62050;-85
2022/08/06 06:46:56;;;;;;;;;;;;;;;29.57;39.51;100571.21;104861;1303;62655;-91
2022/08/06 06:49:31;;;;;;;;;;;;;;;29.58;39.30;100566.91;105023;1302;76813;-85
2022/08/06 06:52:00;;;;;;;;;;;;;;;29.58;39.39;100562.36;105120;1302;62220;-85
2022/08/06 06:54:31;;;;;;;;;;;;;;;29.59;39.27;100562.11;105120;1302;61978;-85
2022/08/06 06:56:56;;;;;;;;;;;;;;;29.59;39.50;100561.91;105125;1302;73622;-85
2022/08/06 06:59:30;;;;;;;;;;;;;;;29.59;39.24;100560.04;105122;1302;62162;-84
2022/08/06 07:01:55;;;;;;;;;;;;;;;29.60;39.38;100561.44;104880;1302;62080;-84
2022/08/06 07:04:21;;;;;;;;;;;;;;;29.60;39.45;100563.95;105116;1302;62098;-84
2022/08/06 07:06:47;;;;;;;;;;;;;;;29.61;39.33;100560.28;105135;1302;61994;-83
2022/08/06 07:09:16;;;;;;;;;;;;;;;29.61;39.40;100556.30;104874;1303;62159;-84
2022/08/06 07:11:45;;;;;;;;;;;;;;;29.61;39.25;100558.79;104858;1302;62080;-84
2022/08/06 07:14:10;;;;;;;;;;;;;;;29.62;39.34;100557.45;104885;1302;62101;-84
2022/08/06 07:16:37;;;;;;;;;;;;;;;29.61;39.34;100556.60;105101;1302;62162;-85
2022/08/06 07:19:03;;;;;;;;;;;;;;;29.62;39.43;100554.74;104903;1301;62110;-85
2022/08/06 07:21:29;;;;;;;;;;;;;;;29.62;39.46;100562.52;104920;1302;62106;-84
2022/08/06 07:23:55;;;;;;;;;;;;;;;29.62;39.50;100556.16;105131;1302;62110;-84
2022/08/06 07:26:21;;;;;;;;;;;;;;;29.62;39.39;100557.77;104835;1303;62129;-84
2022/08/06 07:28:47;;;;;;;;;;;;;;;29.63;39.40;100555.36;104913;1301;60887;-84
2022/08/06 07:31:12;;;;;;;;;;;;;;;29.63;39.47;100551.69;105121;1302;62080;-84
2022/08/06 07:33:39;;;;;;;;;;;;;;;29.63;39.34;100548.95;105161;1302;62030;-84
2022/08/06 07:36:05;;;;;;;;;;;;;;;29.63;39.33;100546.75;104914;1302;62072;-84
2022/08/06 07:38:31;;;;;;;;;;;;;;;29.64;39.43;100553.82;104873;1303;63420;-83
2022/08/06 07:40:58;;;;;;;;;;;;;;;29.63;39.47;100554.91;104849;1303;62916;-83
2022/08/06 07:43:25;;;;;;;;;;;;;;;29.63;39.44;100555.33;104894;1302;62201;-85
2022/08/06 07:45:51;;;;;;;;;;;;;;;29.63;39.38;100550.05;104910;1303;62075;-85
2022/08/06 07:48:17;;;;;;;;;;;;;;;29.64;39.30;100549.45;104873;1302;62094;-84
2022/08/06 07:50:44;;;;;;;;;;;;;;;29.64;39.43;100547.76;104879;1302;62059;-85
2022/08/06 07:53:10;;;;;;;;;;;;;;;29.64;39.50;100546.67;105136;1302;62181;-84
2022/08/06 07:55:35;;;;;;;;;;;;;;;29.65;39.53;100550.63;104916;1303;62107;-84
2022/08/06 07:58:01;;;;;;;;;;;;;;;29.65;39.42;100553.30;104891;1302;62971;-85
2022/08/06 08:00:26;;;;;;;;;;;;;;;29.65;39.28;100548.38;104924;1302;62105;-84
2022/08/06 08:08:21;;;;;;;;;;;;;;;29.65;39.21;100547.41;104924;1302;61921;-85
2022/08/06 08:10:46;;;;;;;;;;;;;;;29.66;39.58;100547.00;104870;1302;62126;-84
2022/08/06 08:13:12;;;;;;;;;;;;;;;29.66;39.64;100546.08;104895;1302;62176;-82
2022/08/06 08:15:37;;;;;;;;;;;;;;;29.66;39.41;100542.29;104902;1302;62735;-83
2022/08/06 08:18:03;;;;;;;;;;;;;;;29.66;39.38;100543.54;104920;1302;62185;-83
2022/08/06 08:20:30;;;;;;;;;;;;;;;29.66;39.30;100545.16;104908;1302;62143;-83
2022/08/06 08:22:55;;;;;;;;;;;;;;;29.67;39.22;100547.08;104812;1302;73852;-83
2022/08/06 08:25:21;;;;;;;;;;;;;;;29.66;39.39;100547.48;104891;1302;62073;-82
2022/08/06 08:27:46;;;;;;;;;;;;;;;29.67;39.57;100540.59;104906;1302;62200;-82
2022/08/06 08:30:12;;;;;;;;;;;;;;;29.67;39.42;100542.01;104893;1302;62142;-83
2022/08/06 08:32:37;;;;;;;;;;;;;;;29.66;39.40;100541.67;104937;1302;62099;-82
2022/08/06 08:35:03;;;;;;;;;;;;;;;29.67;39.35;100538.70;105071;1302;62096;-83
2022/08/06 08:37:28;;;;;;;;;;;;;;;29.67;39.43;100543.07;104903;1302;62097;-83
2022/08/06 08:39:54;;;;;;;;;;;;;;;29.67;39.50;100549.25;104911;1302;62183;-84
2022/08/06 08:42:21;;;;;;;;;;;;;;;29.67;39.55;100547.39;104918;1302;62112;-84
2022/08/06 08:44:47;;;;;;;;;;;;;;;29.67;39.39;100544.92;105144;1302;63415;-85
2022/08/06 08:47:13;;;;;;;;;;;;;;;29.66;39.58;100544.05;105034;1302;62176;-84
2022/08/06 08:49:40;;;;;;;;;;;;;;;29.66;39.40;100544.83;104967;1302;61999;-84
2022/08/06 08:52:12;;;;;;;;;;;;;;;29.66;39.51;100544.79;104893;1303;62109;-84
2022/08/06 08:54:40;;;;;;;;;;;;;;;29.67;39.41;100539.66;104977;1302;74247;-85
2022/08/06 08:57:06;;;;;;;;;;;;;;;29.67;39.37;100544.75;104872;1302;75559;-85
2022/08/06 08:59:32;;;;;;;;;;;;;;;29.67;39.28;100536.77;104840;1302;62092;-85
2022/08/06 09:01:58;;;;;;;;;;;;;;;29.67;39.64;100533.85;104844;1302;62162;-84
2022/08/06 09:04:24;;;;;;;;;;;;;;;29.67;39.53;100534.54;105099;1302;62163;-84
2022/08/06 09:06:49;;;;;;;;;;;;;;;29.67;39.36;100532.20;105107;1302;62218;-84
2022/08/06 09:09:14;;;;;;;;;;;;;;;29.67;39.49;100531.78;104857;1303;62041;-86
2022/08/06 09:11:40;;;;;;;;;;;;;;;29.68;39.59;100538.60;104873;1302;62076;-86
2022/08/06 09:14:06;;;;;;;;;;;;;;;29.68;39.39;100534.05;105136;1301;62069;-86
2022/08/06 09:16:31;;;;;;;;;;;;;;;29.68;39.48;100533.36;104859;1302;62085;-83
2022/08/06 09:18:57;;;;;;;;;;;;;;;29.68;39.54;100530.62;104862;1302;62050;-83
2022/08/06 09:21:22;;;;;;;;;;;;;;;29.68;39.52;100530.40;104909;1302;62268;-84
2022/08/06 09:23:48;;;;;;;;;;;;;;;29.68;39.49;100531.41;104864;1302;62102;-84
2022/08/06 09:26:13;;;;;;;;;;;;;;;29.67;39.49;100534.16;104948;1302;62209;-84
2022/08/06 09:28:40;;;;;;;;;;;;;;;29.67;39.27;100531.13;104740;1305;62105;-84
2022/08/06 09:31:09;;;;;;;;;;;;;;;29.66;39.41;100532.08;104862;1302;61928;-84
2022/08/06 09:33:36;;;;;;;;;;;;;;;29.66;39.29;100531.02;104872;1302;61579;-84
2022/08/06 09:36:03;;;;;;;;;;;;;;;29.66;39.62;100523.79;105111;1302;62226;-85
2022/08/06 09:38:29;;;;;;;;;;;;;;;29.66;39.29;100523.61;104720;1302;71397;-84
2022/08/06 09:41:10;;;;;;;;;;;;;;;29.66;39.36;100517.80;105132;1302;62123;-85
2022/08/06 09:43:36;;;;;;;;;;;;;;;29.65;39.41;100518.08;104871;1302;62144;-85
2022/08/06 09:46:02;;;;;;;;;;;;;;;29.65;39.39;100520.59;105125;1302;62150;-84
2022/08/06 09:48:27;;;;;;;;;;;;;;;29.65;39.46;100523.35;105116;1302;62193;-83
2022/08/06 09:50:53;;;;;;;;;;;;;;;29.65;39.57;100521.04;104914;1302;62114;-84
2022/08/06 09:53:18;;;;;;;;;;;;;;;29.65;39.54;100520.88;105120;1302;62097;-84
2022/08/06 09:55:44;;;;;;;;;;;;;;;29.64;39.40;100518.02;105011;1302;62095;-85
2022/08/06 09:58:09;;;;;;;;;;;;;;;29.64;39.42;100510.64;104960;1302;62661;-84
2022/08/06 10:00:35;;;;;;;;;;;;;;;29.64;39.50;100511.86;105121;1302;62056;-84
2022/08/06 10:03:01;;;;;;;;;;;;;;;29.64;39.45;100510.93;104874;1302;62226;-85
2022/08/06 10:05:26;;;;;;;;;;;;;;;29.64;39.57;100510.95;104878;1302;63085;-84
2022/08/06 10:08:01;;;;;;;;;;;;;;;29.64;39.40;100508.05;104922;1302;62099;-85
2022/08/06 10:10:39;;;;;;;;;;;;;;;29.64;39.56;100500.98;105121;1302;72736;-84
2022/08/06 10:13:16;;;;;;;;;;;;;;;29.64;39.51;100502.73;105120;1302;75907;-84
2022/08/06 10:15:43;;;;;;;;;;;;;;;29.64;39.56;100499.52;104878;1302;61971;-84
2022/08/06 10:18:08;;;;;;;;;;;;;;;29.64;39.68;100504.05;105114;1302;62183;-84
2022/08/06 10:20:34;;;;;;;;;;;;;;;29.65;39.37;100509.79;104870;1302;62083;-83
2022/08/06 10:23:00;;;;;;;;;;;;;;;29.65;39.51;100507.40;104914;1302;62114;-84
2022/08/06 10:25:26;;;;;;;;;;;;;;;29.65;39.53;100509.76;104892;1302;62148;-84
2022/08/06 10:27:54;;;;;;;;;;;;;;;29.65;39.19;100505.81;104883;1302;62050;-83
2022/08/06 10:30:20;;;;;;;;;;;;;;;29.65;39.58;100502.67;104881;1302;61927;-84
2022/08/06 10:32:51;;;;;;;;;;;;;;;29.66;39.32;100499.51;104868;1302;62093;-84
2022/08/06 10:35:17;;;;;;;;;;;;;;;29.66;39.52;100495.15;104888;1303;61884;-85
2022/08/06 10:37:43;;;;;;;;;;;;;;;29.66;39.51;100496.24;104875;1302;62132;-84
2022/08/06 10:40:10;;;;;;;;;;;;;;;29.66;39.62;100492.54;104824;1302;62679;-84
2022/08/06 10:42:36;;;;;;;;;;;;;;;29.66;39.50;100492.20;104835;1302;62106;-84
2022/08/06 10:45:02;;;;;;;;;;;;;;;29.67;39.61;100490.16;104958;1302;62078;-84
2022/08/06 10:47:27;;;;;;;;;;;;;;;29.66;39.56;100488.02;104871;1302;69520;-84
2022/08/06 10:49:53;;;;;;;;;;;;;;;29.66;39.39;100493.46;104952;1302;61714;-84
2022/08/06 10:52:18;;;;;;;;;;;;;;;29.67;39.29;100495.96;104891;1302;62203;-84
2022/08/06 10:54:44;;;;;;;;;;;;;;;29.66;39.40;100495.09;104935;1302;76579;-86
2022/08/06 10:57:12;;;;;;;;;;;;;;;29.67;39.48;100494.10;104930;1302;62243;-87
2022/08/06 10:59:38;;;;;;;;;;;;;;;29.67;39.55;100496.11;104855;1302;62010;-84
2022/08/06 11:02:08;;;;;;;;;;;;;;;29.68;39.32;100491.34;104871;1302;62111;-86
2022/08/06 11:04:52;;;;;;;;;;;;;;;29.68;39.46;100488.60;104960;1302;75296;-85
2022/08/06 11:07:21;;;;;;;;;;;;;;;29.68;39.38;100486.59;104944;1302;62054;-85
2022/08/06 11:09:46;;;;;;;;;;;;;;;29.68;39.38;100489.60;104857;1302;61969;-85
2022/08/06 11:12:12;;;;;;;;;;;;;;;29.68;39.58;100489.85;104967;1302;62150;-86
2022/08/06 11:14:37;;;;;;;;;;;;;;;29.68;39.52;100487.89;104949;1302;62185;-85
2022/08/06 11:17:03;;;;;;;;;;;;;;;29.68;39.36;100492.20;104856;1302;62092;-86
2022/08/06 11:19:48;;;;;;;;;;;;;;;29.68;39.35;100487.61;105005;1302;62082;-85
2022/08/06 11:22:32;;;;;;;;;;;;;;;29.68;39.37;100486.38;104975;1302;61984;-85
2022/08/06 11:24:57;;;;;;;;;;;;;;;29.69;39.50;100489.74;104936;1302;74110;-84
2022/08/06 11:27:43;;;;;;;;;;;;;;;29.68;39.32;100485.59;104948;1302;62072;-85
2022/08/06 11:30:11;;;;;;;;;;;;;;;29.69;39.23;100484.24;104996;1302;62087;-84
2022/08/06 11:32:44;;;;;;;;;;;;;;;29.69;39.45;100483.90;104973;1302;62088;-86
2022/08/06 11:35:28;;;;;;;;;;;;;;;29.69;39.44;100484.98;104944;1300;72626;-85
2022/08/06 11:37:53;;;;;;;;;;;;;;;29.69;39.47;100481.86;104995;1302;76647;-83
2022/08/06 11:40:19;;;;;;;;;;;;;;;29.70;39.44;100479.81;104871;1302;63390;-85
2022/08/06 11:42:45;;;;;;;;;;;;;;;29.70;39.19;100483.28;104890;1302;62080;-82
2022/08/06 11:45:11;;;;;;;;;;;;;;;29.70;39.57;100481.98;104860;1302;62101;-86
2022/08/06 11:47:43;;;;;;;;;;;;;;;29.70;39.03;100479.82;104878;1303;62093;-83
2022/08/06 11:50:22;;;;;;;;;;;;;;;29.71;39.23;100479.20;104867;1302;61961;-83
2022/08/06 11:52:47;;;;;;;;;;;;;;;29.71;39.40;100480.45;105113;1302;62229;-83
2022/08/06 11:55:14;;;;;;;;;;;;;;;29.71;39.27;100479.30;104875;1305;62092;-83
2022/08/06 11:57:40;;;;;;;;;;;;;;;29.71;39.45;100481.70;104907;1302;63234;-84
2022/08/06 12:00:09;;;;;;;;;;;;;;;29.71;39.38;100475.70;104917;1302;62066;-83
2022/08/06 12:02:41;;;;;;;;;;;;;;;29.71;39.18;100470.78;104939;1302;61874;-84
2022/08/06 12:05:07;;;;;;;;;;;;;;;29.72;39.42;100471.40;105106;1302;72869;-84
2022/08/06 12:07:36;;;;;;;;;;;;;;;29.72;39.19;100467.97;104845;1302;75457;-84
2022/08/06 12:10:09;;;;;;;;;;;;;;;29.72;39.36;100466.66;104904;1302;61980;-84
2022/08/06 12:12:48;;;;;;;;;;;;;;;29.72;39.33;100467.77;105127;1302;61998;-85
2022/08/06 12:15:14;;;;;;;;;;;;;;;29.72;39.30;100461.11;104884;1302;73094;-84
2022/08/06 12:17:59;;;;;;;;;;;;;;;29.72;39.18;100464.29;105126;1302;76453;-85
2022/08/06 12:20:29;;;;;;;;;;;;;;;29.72;39.26;100465.08;104893;1302;61989;-85
2022/08/06 12:22:54;;;;;;;;;;;;;;;29.72;39.33;100464.75;104825;1302;61929;-85
2022/08/06 12:25:20;;;;;;;;;;;;;;;29.72;39.44;100461.05;104874;1302;62097;-84
2022/08/06 12:27:45;;;;;;;;;;;;;;;29.72;39.41;100459.64;104925;1302;62175;-84
2022/08/06 12:30:13;;;;;;;;;;;;;;;29.72;39.21;100458.72;104812;1302;62053;-84
2022/08/06 12:32:39;;;;;;;;;;;;;;;29.72;39.37;100460.15;104909;1302;62107;-84